createdAt,value
2018-04-28T00:00:24.276Z,4.86
2018-04-28T00:02:52.525Z,6.92
2018-04-28T00:05:26.838Z,5.02
2018-04-28T00:07:55.113Z,5.72
2018-04-28T00:10:29.876Z,5.26
2018-04-28T00:12:58.139Z,5.16
2018-04-28T00:15:26.422Z,5.70
2018-04-28T00:17:54.699Z,5.12
2018-04-28T00:20:22.969Z,4.74
2018-04-28T00:22:56.906Z,5.02
2018-04-28T00:25:47.314Z,4.18
2018-04-28T00:28:47.077Z,4.04
2018-04-28T00:31:17.857Z,4.60
2018-04-28T00:33:47.097Z,4.76
2018-04-28T00:36:20.210Z,3.84
2018-04-28T00:39:00.676Z,5.02
2018-04-28T00:41:33.649Z,3.70
2018-04-28T00:44:11.613Z,4.58
2018-04-28T00:46:46.020Z,4.56
2018-04-28T00:49:15.918Z,4.22
2018-04-28T00:51:48.046Z,3.76
2018-04-28T00:54:17.833Z,3.68
2018-04-28T00:57:17.106Z,5.36
2018-04-28T00:59:51.874Z,4.36
2018-04-28T01:02:20.182Z,5.22
2018-04-28T01:04:48.441Z,4.92
2018-04-28T01:07:21.694Z,4.18
2018-04-28T01:09:57.775Z,3.70
2018-04-28T01:12:26.070Z,4.18
2018-04-28T01:15:14.055Z,4.74
2018-04-28T01:17:45.733Z,4.62
2018-04-28T01:20:14.928Z,4.12
2018-04-28T01:22:46.713Z,3.70
2018-04-28T01:25:19.425Z,4.08
2018-04-28T01:28:02.569Z,4.58
2018-04-28T01:30:34.681Z,4.96
2018-04-28T01:33:18.724Z,3.50
2018-04-28T01:36:09.742Z,3.84
2018-04-28T01:38:37.953Z,3.88
2018-04-28T01:41:23.596Z,4.20
2018-04-28T01:44:02.581Z,4.62
2018-04-28T01:46:40.744Z,3.80
2018-04-28T01:49:10.641Z,4.06
2018-04-28T01:51:54.525Z,4.72
2018-04-28T01:54:26.650Z,4.32
2018-04-28T01:57:01.129Z,4.52
2018-04-28T01:59:48.246Z,4.38
2018-04-28T02:02:16.517Z,4.46
2018-04-28T02:04:53.537Z,5.06
2018-04-28T02:07:21.808Z,4.42
2018-04-28T02:09:51.937Z,4.46
2018-04-28T02:12:35.165Z,4.32
2018-04-28T02:15:07.076Z,3.74
2018-04-28T02:17:37.145Z,4.10
2018-04-28T02:20:21.259Z,4.56
2018-04-28T02:23:23.050Z,4.30
2018-04-28T02:26:05.723Z,3.30
2018-04-28T02:28:53.389Z,3.72
2018-04-28T02:31:24.382Z,4.26
2018-04-28T02:33:53.502Z,3.98
2018-04-28T02:36:25.386Z,3.82
2018-04-28T02:38:58.986Z,4.06
2018-04-28T02:54:35.128Z,4.83
2018-04-28T02:57:03.893Z,3.76
2018-04-28T02:59:33.797Z,4.50
2018-04-28T03:02:22.415Z,6.00
2018-04-28T03:05:11.473Z,3.02
2018-04-28T03:07:44.141Z,3.26
2018-04-28T03:10:20.041Z,3.68
2018-04-28T03:12:48.313Z,3.38
2018-04-28T03:15:16.590Z,3.42
2018-04-28T03:17:46.895Z,3.62
2018-04-28T03:20:15.169Z,3.62
2018-04-28T03:22:50.464Z,2.56
2018-04-28T03:25:29.849Z,3.82
2018-04-28T03:28:20.860Z,4.28
2018-04-28T03:30:49.110Z,3.58
2018-04-28T03:33:23.861Z,4.40
2018-04-28T03:35:52.113Z,3.50
2018-04-28T03:38:24.356Z,3.92
2018-04-28T03:40:55.348Z,4.12
2018-04-28T03:43:28.261Z,3.98
2018-04-28T03:46:06.078Z,4.32
2018-04-28T03:48:59.951Z,4.74
2018-04-28T03:51:29.061Z,3.92
2018-04-28T03:54:03.277Z,3.34
2018-04-28T03:56:34.990Z,3.64
2018-04-28T03:59:18.693Z,3.74
2018-04-28T04:01:58.677Z,3.84
2018-04-28T04:04:52.354Z,4.22
2018-04-28T04:07:21.641Z,3.92
2018-04-28T04:09:49.929Z,2.94
2018-04-28T04:12:27.857Z,3.20
2018-04-28T04:15:01.053Z,4.30
2018-04-28T04:17:48.981Z,4.76
2018-04-28T04:20:25.857Z,3.10
2018-04-28T04:22:55.362Z,4.00
2018-04-28T04:25:45.498Z,3.66
2018-04-28T04:28:43.603Z,3.48
2018-04-28T04:31:31.282Z,3.50
2018-04-28T04:34:26.022Z,3.74
2018-04-28T04:37:03.194Z,4.78
2018-04-28T04:39:38.051Z,3.88
2018-04-28T04:42:08.847Z,3.20
2018-04-28T04:44:45.426Z,4.74
2018-04-28T04:47:38.440Z,3.34
2018-04-28T04:50:29.991Z,3.86
2018-04-28T04:53:21.154Z,3.82
2018-04-28T04:56:05.169Z,3.24
2018-04-28T04:58:36.945Z,3.90
2018-04-28T05:01:14.702Z,3.58
2018-04-28T05:03:54.673Z,4.10
2018-04-28T05:06:23.858Z,5.38
2018-04-28T05:09:07.858Z,3.50
2018-04-28T05:11:54.677Z,3.82
2018-04-28T05:14:34.923Z,3.94
2018-04-28T05:17:17.007Z,3.82
2018-04-28T05:20:09.890Z,3.78
2018-04-28T05:22:46.705Z,3.86
2018-04-28T05:25:29.972Z,4.08
2018-04-28T05:28:11.519Z,4.82
2018-04-28T05:30:49.625Z,3.50
2018-04-28T05:33:38.628Z,3.88
2018-04-28T05:36:10.800Z,3.76
2018-04-28T05:38:47.169Z,3.64
2018-04-28T05:41:27.145Z,6.28
2018-04-28T05:44:14.638Z,3.88
2018-04-28T05:46:48.711Z,4.02
2018-04-28T05:49:38.585Z,3.22
2018-04-28T05:52:19.657Z,4.42
2018-04-28T05:54:48.829Z,4.02
2018-04-28T05:57:39.877Z,4.34
2018-04-28T06:00:23.816Z,4.32
2018-04-28T06:02:57.848Z,4.04
2018-04-28T06:05:38.621Z,4.00
2018-04-28T06:08:38.576Z,3.90
2018-04-28T06:11:26.552Z,4.58
2018-04-28T06:13:58.161Z,4.68
2018-04-28T06:16:34.048Z,4.36
2018-04-28T06:19:22.764Z,3.52
2018-04-28T06:21:51.017Z,5.74
2018-04-28T06:24:19.322Z,4.80
2018-04-28T06:26:47.883Z,4.16
2018-04-28T06:29:16.186Z,4.68
2018-04-28T06:31:45.784Z,3.42
2018-04-28T06:34:14.090Z,5.32
2018-04-28T06:36:42.401Z,3.96
2018-04-28T06:39:10.657Z,4.54
2018-04-28T06:41:38.939Z,4.12
2018-04-28T06:44:07.214Z,3.96
2018-04-28T06:46:35.469Z,4.16
2018-04-28T06:49:03.758Z,3.82
2018-04-28T06:51:32.033Z,4.36
2018-04-28T06:54:01.293Z,4.66
2018-04-28T06:56:28.809Z,3.96
2018-04-28T06:58:57.084Z,4.04
2018-04-28T07:01:25.374Z,3.54
2018-04-28T07:03:53.625Z,4.08
2018-04-28T07:06:21.917Z,5.02
2018-04-28T07:08:50.168Z,4.04
2018-04-28T07:11:18.464Z,4.02
2018-04-28T07:13:46.720Z,3.56
2018-04-28T07:16:17.758Z,3.84
2018-04-28T07:18:45.250Z,3.28
2018-04-28T07:21:14.008Z,4.58
2018-04-28T07:23:42.295Z,4.74
2018-04-28T07:26:10.590Z,3.88
2018-04-28T07:28:38.873Z,4.30
2018-04-28T07:31:06.382Z,4.60
2018-04-28T07:33:36.607Z,3.52
2018-04-28T07:36:04.917Z,3.84
2018-04-28T07:38:33.176Z,3.80
2018-04-28T07:41:02.193Z,3.56
2018-04-28T07:43:31.505Z,4.00
2018-04-28T07:46:00.892Z,4.04
2018-04-28T07:48:29.164Z,4.54
2018-04-28T07:50:57.455Z,3.70
2018-04-28T07:53:25.713Z,3.36
2018-04-28T07:55:54.021Z,3.92
2018-04-28T07:58:22.284Z,3.80
2018-04-28T08:00:50.568Z,4.52
2018-04-28T08:03:18.816Z,3.98
2018-04-28T08:05:47.092Z,3.40
2018-04-28T08:08:15.366Z,3.80
2018-04-28T08:10:44.477Z,4.44
2018-04-28T08:13:12.789Z,4.22
2018-04-28T08:15:42.052Z,4.14
2018-04-28T08:18:10.325Z,4.12
2018-04-28T08:20:38.646Z,3.60
2018-04-28T08:23:06.112Z,4.00
2018-04-28T08:25:34.364Z,3.96
2018-04-28T08:28:01.907Z,3.70
2018-04-28T08:30:31.337Z,3.82
2018-04-28T08:33:00.697Z,3.86
2018-04-28T08:35:28.961Z,4.08
2018-04-28T08:37:57.218Z,4.70
2018-04-28T08:40:25.537Z,4.74
2018-04-28T08:42:53.805Z,3.26
2018-04-28T08:45:22.078Z,3.98
2018-04-28T08:47:50.348Z,4.00
2018-04-28T08:50:18.667Z,3.92
2018-04-28T08:52:46.954Z,4.38
2018-04-28T08:55:15.762Z,4.24
2018-04-28T08:57:44.917Z,4.30
2018-04-28T09:00:25.093Z,3.92
2018-04-28T09:02:53.373Z,3.80
2018-04-28T09:05:21.666Z,3.56
2018-04-28T09:07:49.925Z,3.60
2018-04-28T09:10:19.181Z,4.08
2018-04-28T09:12:47.471Z,3.76
2018-04-28T09:15:15.733Z,4.04
2018-04-28T09:17:45.034Z,3.80
2018-04-28T09:20:15.601Z,3.56
2018-04-28T09:22:43.893Z,4.74
2018-04-28T09:25:12.194Z,3.28
2018-04-28T09:27:40.459Z,5.56
2018-04-28T09:30:09.730Z,5.10
2018-04-28T09:32:38.017Z,4.62
2018-04-28T09:35:06.275Z,3.64
2018-04-28T09:37:34.561Z,3.34
2018-04-28T09:40:02.922Z,3.86
2018-04-28T09:42:31.597Z,4.72
2018-04-28T09:45:00.804Z,3.76
2018-04-28T09:47:29.110Z,4.26
2018-04-28T09:49:57.366Z,4.00
2018-04-28T09:52:26.569Z,3.86
2018-04-28T09:54:54.845Z,4.86
2018-04-28T09:57:25.136Z,3.68
2018-04-28T09:59:53.412Z,4.10
2018-04-28T10:02:21.682Z,5.02
2018-04-28T10:04:50.954Z,4.10
2018-04-28T10:07:19.208Z,3.78
2018-04-28T10:09:47.504Z,3.66
2018-04-28T10:12:15.764Z,3.72
2018-04-28T10:14:45.113Z,3.82
2018-04-28T10:17:14.101Z,3.80
2018-04-28T10:19:42.365Z,4.00
2018-04-28T10:22:10.648Z,4.00
2018-04-28T10:24:38.930Z,3.60
2018-04-28T10:27:08.145Z,4.18
2018-04-28T10:29:36.418Z,3.96
2018-04-28T10:32:05.737Z,4.20
2018-04-28T10:34:33.993Z,4.28
2018-04-28T10:37:02.287Z,4.44
2018-04-28T10:39:35.687Z,3.66
2018-04-28T10:42:03.968Z,3.62
2018-04-28T10:44:32.222Z,4.20
2018-04-28T10:47:00.512Z,3.76
2018-04-28T10:49:28.761Z,3.80
2018-04-28T10:51:57.050Z,4.86
2018-04-28T10:54:25.313Z,3.48
2018-04-28T10:56:53.576Z,3.96
2018-04-28T10:59:25.246Z,5.44
2018-04-28T11:01:53.500Z,3.30
2018-04-28T11:04:21.781Z,3.90
2018-04-28T11:06:50.045Z,3.68
2018-04-28T11:09:18.362Z,3.58
2018-04-28T11:11:46.650Z,4.08
2018-04-28T11:14:16.255Z,4.02
2018-04-28T11:16:47.776Z,3.44
2018-04-28T11:19:16.061Z,3.72
2018-04-28T11:21:47.860Z,4.72
2018-04-28T11:24:16.126Z,3.50
2018-04-28T11:26:46.456Z,3.90
2018-04-28T11:29:14.748Z,3.76
2018-04-28T11:31:43.016Z,4.26
2018-04-28T11:34:11.294Z,4.28
2018-04-28T11:36:39.571Z,3.70
2018-04-28T11:39:07.834Z,4.00
2018-04-28T11:41:36.090Z,3.86
2018-04-28T11:44:04.437Z,3.60
2018-04-28T11:46:34.998Z,3.80
2018-04-28T11:49:03.282Z,3.90
2018-04-28T11:51:32.386Z,3.16
2018-04-28T11:54:01.050Z,3.20
2018-04-28T11:56:29.320Z,3.82
2018-04-28T11:58:58.456Z,3.42
2018-04-28T12:01:26.718Z,3.60
2018-04-28T12:03:55.016Z,3.32
2018-04-28T12:06:23.296Z,3.22
2018-04-28T12:08:51.584Z,3.78
2018-04-28T12:11:19.853Z,3.56
2018-04-28T12:13:48.137Z,2.78
2018-04-28T12:16:17.142Z,4.30
2018-04-28T12:18:46.394Z,3.50
2018-04-28T12:21:14.653Z,3.58
2018-04-28T12:23:42.956Z,3.20
2018-04-28T12:26:11.213Z,2.88
2018-04-28T12:28:39.478Z,3.22
2018-04-28T12:31:07.786Z,3.00
2018-04-28T12:33:36.081Z,3.80
2018-04-28T12:36:04.386Z,3.12
2018-04-28T12:38:31.894Z,3.86
2018-04-28T12:41:01.551Z,3.30
2018-04-28T12:43:30.969Z,3.22
2018-04-28T12:46:00.821Z,3.40
2018-04-28T12:48:29.078Z,3.20
2018-04-28T12:50:57.384Z,3.20
2018-04-28T12:53:26.358Z,3.48
2018-04-28T12:55:54.612Z,3.04
2018-04-28T12:58:23.886Z,4.20
2018-04-28T13:00:52.147Z,3.28
2018-04-28T13:03:20.429Z,3.46
2018-04-28T13:05:48.679Z,4.08
2018-04-28T13:08:20.741Z,3.66
2018-04-28T13:10:49.016Z,3.38
2018-04-28T13:13:17.313Z,3.70
2018-04-28T13:15:51.448Z,3.70
2018-04-28T13:18:19.737Z,4.96
2018-04-28T13:20:47.996Z,3.34
2018-04-28T13:23:16.249Z,4.72
2018-04-28T13:25:45.369Z,3.40
2018-04-28T13:28:14.411Z,3.64
2018-04-28T13:30:42.664Z,3.90
2018-04-28T13:33:10.940Z,3.48
2018-04-28T13:35:39.186Z,3.74
2018-04-28T13:38:07.461Z,3.94
2018-04-28T13:40:35.717Z,3.68
2018-04-28T13:43:04.007Z,4.14
2018-04-28T13:45:32.262Z,4.12
2018-04-28T13:48:00.552Z,3.32
2018-04-28T13:50:28.849Z,3.58
2018-04-28T13:52:57.100Z,2.90
2018-04-28T13:55:25.361Z,3.60
2018-04-28T13:57:53.645Z,3.70
2018-04-28T14:00:21.920Z,3.36
2018-04-28T14:02:50.178Z,3.68
2018-04-28T14:05:18.460Z,3.82
2018-04-28T14:07:46.712Z,3.90
2018-04-28T14:10:16.342Z,3.62
2018-04-28T14:12:45.470Z,3.74
2018-04-28T14:15:13.729Z,3.62
2018-04-28T14:17:42.024Z,3.28
2018-04-28T14:20:10.284Z,3.50
2018-04-28T14:22:38.569Z,4.26
2018-04-28T14:25:06.849Z,3.16
2018-04-28T14:27:35.122Z,4.06
2018-04-28T14:30:03.414Z,3.96
2018-04-28T14:32:31.667Z,3.63
2018-04-28T14:35:01.012Z,4.20
2018-04-28T14:37:29.324Z,3.92
2018-04-28T14:39:57.574Z,3.32
2018-04-28T14:42:37.711Z,3.82
2018-04-28T14:45:05.972Z,3.52
2018-04-28T14:47:34.293Z,3.98
2018-04-28T14:50:02.790Z,4.00
2018-04-28T14:52:32.377Z,3.62
2018-04-28T14:55:00.662Z,3.68
2018-04-28T14:57:28.969Z,3.82
2018-04-28T14:59:57.264Z,3.72
2018-04-28T15:02:25.525Z,3.70
2018-04-28T15:04:53.805Z,3.68
2018-04-28T15:07:22.276Z,3.92
2018-04-28T15:09:51.602Z,3.60
2018-04-28T15:12:19.804Z,5.34
2018-04-28T15:14:48.081Z,3.50
2018-04-28T15:17:16.381Z,3.04
2018-04-28T15:19:44.642Z,4.12
2018-04-28T15:22:12.141Z,4.30
2018-04-28T15:24:40.434Z,3.08
2018-04-28T15:27:08.698Z,3.22
2018-04-28T15:29:36.985Z,3.36
2018-04-28T15:32:08.732Z,3.24
2018-04-28T15:34:37.017Z,3.64
2018-04-28T15:37:05.282Z,3.02
2018-04-28T15:39:33.585Z,3.38
2018-04-28T15:42:01.881Z,3.40
2018-04-28T15:44:30.880Z,3.50
2018-04-28T15:46:59.160Z,3.88
2018-04-28T15:49:28.283Z,4.80
2018-04-28T15:51:56.551Z,3.64
2018-04-28T15:54:24.839Z,3.90
2018-04-28T15:56:56.936Z,4.70
2018-04-28T15:59:25.234Z,3.78
2018-04-28T16:01:54.422Z,3.74
2018-04-28T16:04:22.709Z,3.78
2018-04-28T16:06:55.826Z,4.72
2018-04-28T16:09:24.195Z,3.96
2018-04-28T16:11:56.995Z,3.08
2018-04-28T16:14:25.282Z,3.74
2018-04-28T16:16:53.564Z,3.80
2018-04-28T16:19:21.834Z,3.50
2018-04-28T16:21:50.143Z,3.70
2018-04-28T16:24:18.373Z,3.46
2018-04-28T16:26:46.238Z,3.10
2018-04-28T16:29:14.928Z,3.62
2018-04-28T16:31:43.209Z,3.98
2018-04-28T16:34:11.501Z,3.74
2018-04-28T16:36:39.765Z,4.26
2018-04-28T16:39:08.054Z,3.66
2018-04-28T16:41:36.313Z,3.10
2018-04-28T16:44:05.566Z,3.40
2018-04-28T16:46:33.886Z,4.22
2018-04-28T16:49:02.198Z,3.48
2018-04-28T16:51:32.452Z,3.70
2018-04-28T16:54:00.670Z,4.22
2018-04-28T16:56:28.962Z,3.12
2018-04-28T16:58:57.309Z,4.14
2018-04-28T17:01:31.751Z,3.50
2018-04-28T17:04:00.616Z,3.96
2018-04-28T17:06:28.930Z,4.16
2018-04-28T17:08:57.192Z,3.48
2018-04-28T17:11:25.465Z,4.38
2018-04-28T17:13:53.776Z,3.50
2018-04-28T17:16:29.072Z,3.28
2018-04-28T17:18:57.345Z,3.12
2018-04-28T17:21:35.946Z,3.80
2018-04-28T17:24:04.192Z,3.44
2018-04-28T17:26:32.501Z,4.24
2018-04-28T17:29:00.742Z,3.38
2018-04-28T17:31:30.922Z,3.40
2018-04-28T17:33:59.190Z,2.78
2018-04-28T17:36:27.477Z,3.42
2018-04-28T17:38:55.738Z,3.10
2018-04-28T17:41:24.033Z,2.96
2018-04-28T17:43:52.302Z,4.18
2018-04-28T17:46:20.577Z,3.40
2018-04-28T17:48:48.877Z,3.42
2018-04-28T17:51:17.135Z,3.80
2018-04-28T17:53:46.249Z,4.18
2018-04-28T17:56:16.440Z,3.00
2018-04-28T17:58:44.731Z,2.90
2018-04-28T18:01:13.063Z,3.62
2018-04-28T18:03:41.352Z,3.80
2018-04-28T18:06:09.680Z,3.54
2018-04-28T18:08:37.971Z,3.92
2018-04-28T18:11:06.257Z,4.56
2018-04-28T18:13:34.517Z,3.70
2018-04-28T18:16:02.805Z,3.50
2018-04-28T18:18:31.058Z,3.80
2018-04-28T18:21:05.225Z,3.08
2018-04-28T18:23:33.514Z,3.24
2018-04-28T18:26:01.780Z,3.48
2018-04-28T18:28:31.069Z,3.90
2018-04-28T18:30:59.332Z,3.68
2018-04-28T18:33:27.623Z,3.64
2018-04-28T18:35:57.857Z,3.74
2018-04-28T18:38:26.122Z,4.54
2018-04-28T18:40:54.387Z,3.08
2018-04-28T18:43:21.908Z,3.62
2018-04-28T18:45:50.174Z,3.58
2018-04-28T18:48:18.474Z,4.20
2018-04-28T18:50:47.133Z,3.60
2018-04-28T18:53:16.213Z,3.84
2018-04-28T18:55:45.534Z,3.48
2018-04-28T18:58:14.089Z,3.66
2018-04-28T19:00:42.338Z,3.46
2018-04-28T19:03:10.630Z,4.28
2018-04-28T19:05:38.933Z,4.26
2018-04-28T19:08:17.906Z,3.62
2018-04-28T19:10:46.210Z,4.10
2018-04-28T19:13:15.337Z,5.08
2018-04-28T19:15:50.280Z,4.30
2018-04-28T19:18:18.577Z,4.10
2018-04-28T19:20:46.097Z,3.80
2018-04-28T19:23:15.331Z,4.14
2018-04-28T19:25:45.371Z,4.46
2018-04-28T19:28:14.339Z,5.06
2018-04-28T19:30:45.873Z,5.00
2018-04-28T19:33:15.204Z,3.64
2018-04-28T19:35:44.205Z,4.62
2018-04-28T19:38:12.453Z,4.82
2018-04-28T19:40:40.741Z,4.22
2018-04-28T19:43:09.020Z,4.70
2018-04-28T19:45:39.837Z,4.88
2018-04-28T19:48:08.101Z,4.64
2018-04-28T19:50:36.382Z,4.82
2018-04-28T19:53:04.700Z,4.68
2018-04-28T19:55:33.088Z,5.16
2018-04-28T19:58:02.270Z,4.32
2018-04-28T20:00:31.200Z,5.28
2018-04-28T20:02:59.459Z,5.86
2018-04-28T20:05:31.383Z,6.06
2018-04-28T20:08:01.612Z,5.72
2018-04-28T20:10:30.253Z,5.22
2018-04-28T20:12:58.501Z,6.30
2018-04-28T20:15:26.789Z,5.12
2018-04-28T20:17:55.037Z,4.62
2018-04-28T20:20:23.313Z,5.28
2018-04-28T20:23:03.481Z,5.26
2018-04-28T20:25:32.184Z,4.40
2018-04-28T20:28:01.337Z,5.24
2018-04-28T20:30:30.220Z,4.58
2018-04-28T20:32:58.545Z,4.60
2018-04-28T20:35:26.789Z,6.34
2018-04-28T20:37:55.978Z,5.80
2018-04-28T20:40:24.268Z,5.56
2018-04-28T20:42:53.570Z,5.58
2018-04-28T20:45:23.215Z,6.18
2018-04-28T20:47:51.493Z,5.38
2018-04-28T20:50:18.990Z,4.92
2018-04-28T20:52:47.295Z,4.30
2018-04-28T20:55:16.263Z,5.34
2018-04-28T20:57:45.410Z,4.62
2018-04-28T21:00:14.584Z,4.02
2018-04-28T21:02:42.845Z,4.68
2018-04-28T21:05:11.164Z,4.48
2018-04-28T21:07:39.421Z,4.10
2018-04-28T21:10:07.710Z,4.56
2018-04-28T21:12:35.973Z,4.26
2018-04-28T21:15:04.277Z,3.68
2018-04-28T21:17:31.784Z,4.02
2018-04-28T21:19:59.337Z,4.42
2018-04-28T21:22:26.820Z,5.78
2018-04-28T21:24:55.082Z,5.26
2018-04-28T21:27:23.373Z,5.40
2018-04-28T21:29:51.659Z,5.20
2018-04-28T21:32:19.909Z,6.14
2018-04-28T21:34:48.198Z,5.36
2018-04-28T21:37:16.489Z,4.86
2018-04-28T21:39:44.768Z,5.88
2018-04-28T21:42:13.021Z,5.12
2018-04-28T21:44:41.304Z,5.38
2018-04-28T21:47:09.581Z,5.18
2018-04-28T21:49:37.868Z,5.84
2018-04-28T21:52:06.125Z,5.64
2018-04-28T21:54:34.409Z,6.94
2018-04-28T21:57:02.698Z,6.34
2018-04-28T21:59:31.678Z,5.58
2018-04-28T22:02:00.586Z,5.68
2018-04-28T22:04:28.876Z,6.46
2018-04-28T22:06:56.409Z,7.02
2018-04-28T22:09:24.705Z,7.44
2018-04-28T22:11:52.954Z,6.48
2018-04-28T22:14:21.236Z,7.34
2018-04-28T22:16:49.494Z,6.98
2018-04-28T22:19:17.788Z,7.86
2018-04-28T22:21:46.192Z,7.94
2018-04-28T22:24:15.337Z,9.70
2018-04-28T22:26:44.206Z,11.02
2018-04-28T22:29:12.517Z,9.68
2018-04-28T22:31:40.777Z,11.64
2018-04-28T22:34:09.065Z,9.76
2018-04-28T22:36:37.362Z,10.70
2018-04-28T22:39:05.617Z,9.50
2018-04-28T22:41:33.972Z,9.60
2018-04-28T22:44:02.185Z,10.44
2018-04-28T22:46:32.029Z,10.22
2018-04-28T22:49:01.077Z,9.38
2018-04-28T22:51:29.382Z,9.62
2018-04-28T22:53:57.645Z,10.76
2018-04-28T22:56:25.176Z,10.24
2018-04-28T22:58:53.437Z,11.00
2018-04-28T23:01:21.716Z,10.04
2018-04-28T23:03:50.861Z,10.24
2018-04-28T23:06:19.112Z,9.36
2018-04-28T23:08:47.411Z,10.32
2018-04-28T23:11:16.722Z,9.02
2018-04-28T23:13:46.326Z,8.74
2018-04-28T23:16:15.165Z,9.40
2018-04-28T23:18:45.033Z,9.70
2018-04-28T23:21:13.377Z,9.22
2018-04-28T23:23:41.653Z,8.42
2018-04-28T23:26:09.165Z,9.76
2018-04-28T23:28:37.421Z,9.68
2018-04-28T23:31:05.719Z,10.28
2018-04-28T23:33:33.979Z,10.12
2018-04-28T23:36:02.262Z,10.14
2018-04-28T23:38:31.505Z,10.42
2018-04-28T23:40:59.041Z,11.20
2018-04-28T23:43:27.302Z,10.28
2018-04-28T23:45:55.625Z,10.04
2018-04-28T23:48:23.897Z,11.32
2018-04-28T23:50:52.141Z,9.48
2018-04-28T23:53:20.445Z,10.32
2018-04-28T23:55:48.746Z,10.08
2018-04-28T23:58:17.020Z,9.84
